sensor_id;sensor_type;location;lat;lon;timestamp;temperature;humidity
2022;DHT22;1015;49.756;6.994;2022-10-17T00:00:26;14.90;99.90
2022;DHT22;1015;49.756;6.994;2022-10-17T00:02:54;14.90;99.90
2022;DHT22;1015;49.756;6.994;2022-10-17T00:05:21;14.90;99.90
2022;DHT22;1015;49.756;6.994;2022-10-17T00:07:51;14.80;99.90
2022;DHT22;1015;49.756;6.994;2022-10-17T00:10:19;14.90;99.90
2022;DHT22;1015;49.756;6.994;2022-10-17T00:12:46;14.90;99.90
2022;DHT22;1015;49.756;6.994;2022-10-17T00:15:15;14.90;99.90
2022;DHT22;1015;49.756;6.994;2022-10-17T00:17:43;14.90;99.90
2022;DHT22;1015;49.756;6.994;2022-10-17T00:20:11;14.90;99.90
2022;DHT22;1015;49.756;6.994;2022-10-17T00:22:39;14.90;99.90
2022;DHT22;1015;49.756;6.994;2022-10-17T00:25:08;14.80;99.90
2022;DHT22;1015;49.756;6.994;2022-10-17T00:27:35;14.80;99.90
2022;DHT22;1015;49.756;6.994;2022-10-17T00:30:04;14.70;99.90
2022;DHT22;1015;49.756;6.994;2022-10-17T00:32:31;14.70;99.90
2022;DHT22;1015;49.756;6.994;2022-10-17T00:34:59;14.70;99.90
2022;DHT22;1015;49.756;6.994;2022-10-17T00:37:26;14.60;99.90
2022;DHT22;1015;49.756;6.994;2022-10-17T00:39:54;14.60;99.90
2022;DHT22;1015;49.756;6.994;2022-10-17T00:42:23;14.60;99.90
2022;DHT22;1015;49.756;6.994;2022-10-17T00:45:11;14.60;99.90
2022;DHT22;1015;49.756;6.994;2022-10-17T00:47:40;14.60;99.90
2022;DHT22;1015;49.756;6.994;2022-10-17T00:50:08;14.50;99.90
2022;DHT22;1015;49.756;6.994;2022-10-17T00:52:37;14.60;99.90
2022;DHT22;1015;49.756;6.994;2022-10-17T00:55:08;14.60;99.90
2022;DHT22;1015;49.756;6.994;2022-10-17T00:57:39;14.70;99.90
2022;DHT22;1015;49.756;6.994;2022-10-17T01:00:09;14.60;99.90
2022;DHT22;1015;49.756;6.994;2022-10-17T01:02:37;14.60;99.90
2022;DHT22;1015;49.756;6.994;2022-10-17T01:05:05;14.60;99.90
2022;DHT22;1015;49.756;6.994;2022-10-17T01:07:33;14.60;99.90
2022;DHT22;1015;49.756;6.994;2022-10-17T01:10:01;14.70;99.90
2022;DHT22;1015;49.756;6.994;2022-10-17T01:12:34;14.60;99.90
2022;DHT22;1015;49.756;6.994;2022-10-17T01:15:12;14.50;99.90
2022;DHT22;1015;49.756;6.994;2022-10-17T01:17:51;14.50;99.90
2022;DHT22;1015;49.756;6.994;2022-10-17T01:20:43;14.50;99.90
2022;DHT22;1015;49.756;6.994;2022-10-17T01:23:26;14.50;99.90
2022;DHT22;1015;49.756;6.994;2022-10-17T01:26:03;14.50;99.90
2022;DHT22;1015;49.756;6.994;2022-10-17T01:28:56;14.50;99.90
2022;DHT22;1015;49.756;6.994;2022-10-17T01:31:32;14.50;99.90
2022;DHT22;1015;49.756;6.994;2022-10-17T01:34:05;14.40;99.90
2022;DHT22;1015;49.756;6.994;2022-10-17T01:36:42;14.40;99.90
2022;DHT22;1015;49.756;6.994;2022-10-17T01:39:16;14.30;99.90
2022;DHT22;1015;49.756;6.994;2022-10-17T01:41:50;14.50;99.90
2022;DHT22;1015;49.756;6.994;2022-10-17T01:44:21;14.40;99.90
2022;DHT22;1015;49.756;6.994;2022-10-17T01:46:58;14.40;99.90
2022;DHT22;1015;49.756;6.994;2022-10-17T01:49:28;14.50;99.90
2022;DHT22;1015;49.756;6.994;2022-10-17T01:52:00;14.50;99.90
2022;DHT22;1015;49.756;6.994;2022-10-17T01:54:32;14.50;99.90
2022;DHT22;1015;49.756;6.994;2022-10-17T01:57:06;14.60;99.90
2022;DHT22;1015;49.756;6.994;2022-10-17T01:59:38;14.40;99.90
2022;DHT22;1015;49.756;6.994;2022-10-17T02:02:08;14.40;99.90
2022;DHT22;1015;49.756;6.994;2022-10-17T02:04:36;14.50;99.90
2022;DHT22;1015;49.756;6.994;2022-10-17T02:07:07;14.40;99.90
2022;DHT22;1015;49.756;6.994;2022-10-17T02:09:35;14.40;99.90
2022;DHT22;1015;49.756;6.994;2022-10-17T02:15:20;14.40;99.90
2022;DHT22;1015;49.756;6.994;2022-10-17T02:17:59;14.50;99.90
2022;DHT22;1015;49.756;6.994;2022-10-17T02:20:32;14.50;99.90
2022;DHT22;1015;49.756;6.994;2022-10-17T02:23:08;14.40;99.90
2022;DHT22;1015;49.756;6.994;2022-10-17T02:25:41;14.50;99.90
2022;DHT22;1015;49.756;6.994;2022-10-17T02:28:18;14.50;99.90
2022;DHT22;1015;49.756;6.994;2022-10-17T02:30:50;14.50;99.90
2022;DHT22;1015;49.756;6.994;2022-10-17T02:33:24;14.50;99.90
2022;DHT22;1015;49.756;6.994;2022-10-17T02:35:56;14.60;99.90
2022;DHT22;1015;49.756;6.994;2022-10-17T02:38:26;14.40;99.90
2022;DHT22;1015;49.756;6.994;2022-10-17T02:40:55;14.40;99.90
2022;DHT22;1015;49.756;6.994;2022-10-17T02:43:23;14.50;99.90
2022;DHT22;1015;49.756;6.994;2022-10-17T02:45:51;14.40;99.90
2022;DHT22;1015;49.756;6.994;2022-10-17T02:48:24;14.30;99.90
2022;DHT22;1015;49.756;6.994;2022-10-17T02:51:03;14.20;99.90
2022;DHT22;1015;49.756;6.994;2022-10-17T02:53:38;14.20;99.90
2022;DHT22;1015;49.756;6.994;2022-10-17T02:56:15;14.20;99.90
2022;DHT22;1015;49.756;6.994;2022-10-17T02:58:45;14.30;99.90
2022;DHT22;1015;49.756;6.994;2022-10-17T03:01:14;14.20;99.90
2022;DHT22;1015;49.756;6.994;2022-10-17T03:03:43;14.20;99.90
2022;DHT22;1015;49.756;6.994;2022-10-17T03:06:11;14.30;99.90
2022;DHT22;1015;49.756;6.994;2022-10-17T03:08:38;14.30;99.90
2022;DHT22;1015;49.756;6.994;2022-10-17T03:11:05;14.30;99.90
2022;DHT22;1015;49.756;6.994;2022-10-17T03:13:32;14.30;99.90
2022;DHT22;1015;49.756;6.994;2022-10-17T03:16:00;14.40;99.90
2022;DHT22;1015;49.756;6.994;2022-10-17T03:18:27;14.30;99.90
2022;DHT22;1015;49.756;6.994;2022-10-17T03:20:55;14.20;99.90
2022;DHT22;1015;49.756;6.994;2022-10-17T03:23:23;14.10;99.90
2022;DHT22;1015;49.756;6.994;2022-10-17T03:25:50;14.10;99.90
2022;DHT22;1015;49.756;6.994;2022-10-17T03:28:17;14.00;99.90
2022;DHT22;1015;49.756;6.994;2022-10-17T03:30:44;14.10;99.90
2022;DHT22;1015;49.756;6.994;2022-10-17T03:33:11;14.20;99.90
2022;DHT22;1015;49.756;6.994;2022-10-17T03:35:39;14.10;99.90
2022;DHT22;1015;49.756;6.994;2022-10-17T03:38:07;14.10;99.90
2022;DHT22;1015;49.756;6.994;2022-10-17T03:40:34;14.00;99.90
2022;DHT22;1015;49.756;6.994;2022-10-17T03:43:01;14.00;99.90
2022;DHT22;1015;49.756;6.994;2022-10-17T03:45:29;14.10;99.90
2022;DHT22;1015;49.756;6.994;2022-10-17T03:47:57;14.00;99.90
2022;DHT22;1015;49.756;6.994;2022-10-17T03:50:25;14.00;99.90
2022;DHT22;1015;49.756;6.994;2022-10-17T03:52:52;13.90;99.90
2022;DHT22;1015;49.756;6.994;2022-10-17T03:55:21;13.90;99.90
2022;DHT22;1015;49.756;6.994;2022-10-17T03:57:48;13.90;99.90
2022;DHT22;1015;49.756;6.994;2022-10-17T04:00:15;13.80;99.90
2022;DHT22;1015;49.756;6.994;2022-10-17T04:02:42;13.80;99.90
2022;DHT22;1015;49.756;6.994;2022-10-17T04:05:10;13.90;99.90
2022;DHT22;1015;49.756;6.994;2022-10-17T04:07:37;13.90;99.90
2022;DHT22;1015;49.756;6.994;2022-10-17T04:10:05;14.10;99.90
2022;DHT22;1015;49.756;6.994;2022-10-17T04:12:34;14.00;99.90
2022;DHT22;1015;49.756;6.994;2022-10-17T04:15:01;14.00;99.90
2022;DHT22;1015;49.756;6.994;2022-10-17T04:17:29;14.00;99.90
2022;DHT22;1015;49.756;6.994;2022-10-17T04:19:57;14.00;99.90
2022;DHT22;1015;49.756;6.994;2022-10-17T04:22:24;14.00;99.90
2022;DHT22;1015;49.756;6.994;2022-10-17T04:24:51;14.00;99.90
2022;DHT22;1015;49.756;6.994;2022-10-17T04:27:18;14.00;99.90
2022;DHT22;1015;49.756;6.994;2022-10-17T04:29:47;14.10;99.90
2022;DHT22;1015;49.756;6.994;2022-10-17T04:32:14;14.20;99.90
2022;DHT22;1015;49.756;6.994;2022-10-17T04:34:42;14.20;99.90
2022;DHT22;1015;49.756;6.994;2022-10-17T04:37:09;14.10;99.90
2022;DHT22;1015;49.756;6.994;2022-10-17T04:39:37;14.10;99.90
2022;DHT22;1015;49.756;6.994;2022-10-17T04:42:04;14.10;99.90
2022;DHT22;1015;49.756;6.994;2022-10-17T04:44:31;14.10;99.90
2022;DHT22;1015;49.756;6.994;2022-10-17T04:47:01;14.20;99.90
2022;DHT22;1015;49.756;6.994;2022-10-17T04:49:28;14.20;99.90
2022;DHT22;1015;49.756;6.994;2022-10-17T04:51:55;14.30;99.90
2022;DHT22;1015;49.756;6.994;2022-10-17T04:54:22;14.20;99.90
2022;DHT22;1015;49.756;6.994;2022-10-17T04:56:50;14.20;99.90
2022;DHT22;1015;49.756;6.994;2022-10-17T04:59:17;14.10;99.90
2022;DHT22;1015;49.756;6.994;2022-10-17T05:01:44;14.10;99.90
2022;DHT22;1015;49.756;6.994;2022-10-17T05:04:13;14.10;99.90
2022;DHT22;1015;49.756;6.994;2022-10-17T05:06:40;14.30;99.90
2022;DHT22;1015;49.756;6.994;2022-10-17T05:09:07;14.20;99.90
2022;DHT22;1015;49.756;6.994;2022-10-17T05:11:34;14.30;99.90
2022;DHT22;1015;49.756;6.994;2022-10-17T05:14:01;14.30;99.90
2022;DHT22;1015;49.756;6.994;2022-10-17T05:16:29;14.30;99.90
2022;DHT22;1015;49.756;6.994;2022-10-17T05:18:57;14.20;99.90
2022;DHT22;1015;49.756;6.994;2022-10-17T05:21:27;14.10;99.90
2022;DHT22;1015;49.756;6.994;2022-10-17T05:23:55;14.10;99.90
2022;DHT22;1015;49.756;6.994;2022-10-17T05:26:22;14.00;99.90
2022;DHT22;1015;49.756;6.994;2022-10-17T05:28:50;14.10;99.90
2022;DHT22;1015;49.756;6.994;2022-10-17T05:31:18;14.20;99.90
2022;DHT22;1015;49.756;6.994;2022-10-17T05:33:45;14.20;99.90
2022;DHT22;1015;49.756;6.994;2022-10-17T05:36:12;14.20;99.90
2022;DHT22;1015;49.756;6.994;2022-10-17T05:38:41;14.20;99.90
2022;DHT22;1015;49.756;6.994;2022-10-17T05:41:09;14.40;99.90
2022;DHT22;1015;49.756;6.994;2022-10-17T05:43:36;14.30;99.90
2022;DHT22;1015;49.756;6.994;2022-10-17T05:46:04;14.30;99.90
2022;DHT22;1015;49.756;6.994;2022-10-17T05:48:32;14.20;99.90
2022;DHT22;1015;49.756;6.994;2022-10-17T05:51:01;14.10;99.90
2022;DHT22;1015;49.756;6.994;2022-10-17T05:53:30;14.20;99.90
2022;DHT22;1015;49.756;6.994;2022-10-17T05:56:00;14.30;99.90
2022;DHT22;1015;49.756;6.994;2022-10-17T05:58:28;14.20;99.90
2022;DHT22;1015;49.756;6.994;2022-10-17T06:00:59;14.20;99.90
2022;DHT22;1015;49.756;6.994;2022-10-17T06:03:27;14.00;99.90
2022;DHT22;1015;49.756;6.994;2022-10-17T06:05:54;14.00;99.90
2022;DHT22;1015;49.756;6.994;2022-10-17T06:08:22;14.00;99.90
2022;DHT22;1015;49.756;6.994;2022-10-17T06:10:49;14.00;99.90
2022;DHT22;1015;49.756;6.994;2022-10-17T06:13:18;14.10;99.90
2022;DHT22;1015;49.756;6.994;2022-10-17T06:15:46;14.20;99.90
2022;DHT22;1015;49.756;6.994;2022-10-17T06:18:13;14.20;99.90
2022;DHT22;1015;49.756;6.994;2022-10-17T06:20:40;14.20;99.90
2022;DHT22;1015;49.756;6.994;2022-10-17T06:23:07;14.20;99.90
2022;DHT22;1015;49.756;6.994;2022-10-17T06:25:34;14.20;99.90
2022;DHT22;1015;49.756;6.994;2022-10-17T06:28:02;14.20;99.90
2022;DHT22;1015;49.756;6.994;2022-10-17T06:30:30;14.30;99.90
2022;DHT22;1015;49.756;6.994;2022-10-17T06:32:58;14.40;99.90
2022;DHT22;1015;49.756;6.994;2022-10-17T06:35:25;14.40;99.90
2022;DHT22;1015;49.756;6.994;2022-10-17T06:37:53;14.50;99.90
2022;DHT22;1015;49.756;6.994;2022-10-17T06:40:20;14.60;99.90
2022;DHT22;1015;49.756;6.994;2022-10-17T06:42:47;14.60;99.90
2022;DHT22;1015;49.756;6.994;2022-10-17T06:45:14;14.60;99.90
2022;DHT22;1015;49.756;6.994;2022-10-17T06:47:43;14.70;99.90
2022;DHT22;1015;49.756;6.994;2022-10-17T06:50:10;14.70;99.90
2022;DHT22;1015;49.756;6.994;2022-10-17T06:52:37;14.70;99.90
2022;DHT22;1015;49.756;6.994;2022-10-17T06:55:05;14.80;99.90
2022;DHT22;1015;49.756;6.994;2022-10-17T06:57:32;14.80;99.90
2022;DHT22;1015;49.756;6.994;2022-10-17T06:59:59;14.80;99.90
2022;DHT22;1015;49.756;6.994;2022-10-17T07:02:27;14.80;99.90
2022;DHT22;1015;49.756;6.994;2022-10-17T07:04:55;14.80;99.90
2022;DHT22;1015;49.756;6.994;2022-10-17T07:07:22;14.80;99.90
2022;DHT22;1015;49.756;6.994;2022-10-17T07:09:50;14.80;99.90
2022;DHT22;1015;49.756;6.994;2022-10-17T07:12:18;14.90;99.90
2022;DHT22;1015;49.756;6.994;2022-10-17T07:14:45;14.90;99.90
2022;DHT22;1015;49.756;6.994;2022-10-17T07:17:15;14.90;99.90
2022;DHT22;1015;49.756;6.994;2022-10-17T07:19:42;15.00;99.90
2022;DHT22;1015;49.756;6.994;2022-10-17T07:22:11;15.00;99.90
2022;DHT22;1015;49.756;6.994;2022-10-17T07:24:39;15.10;99.90
2022;DHT22;1015;49.756;6.994;2022-10-17T07:27:06;15.10;99.90
2022;DHT22;1015;49.756;6.994;2022-10-17T07:29:33;15.20;99.90
2022;DHT22;1015;49.756;6.994;2022-10-17T07:32:00;15.10;99.90
2022;DHT22;1015;49.756;6.994;2022-10-17T07:34:32;15.10;99.90
2022;DHT22;1015;49.756;6.994;2022-10-17T07:36:59;15.10;99.90
2022;DHT22;1015;49.756;6.994;2022-10-17T07:39:28;15.20;99.90
2022;DHT22;1015;49.756;6.994;2022-10-17T07:41:55;15.20;99.90
2022;DHT22;1015;49.756;6.994;2022-10-17T07:44:23;15.20;99.90
2022;DHT22;1015;49.756;6.994;2022-10-17T07:46:50;15.20;99.90
2022;DHT22;1015;49.756;6.994;2022-10-17T07:49:18;15.30;99.90
2022;DHT22;1015;49.756;6.994;2022-10-17T07:51:46;15.40;99.90
2022;DHT22;1015;49.756;6.994;2022-10-17T07:54:14;15.50;99.90
2022;DHT22;1015;49.756;6.994;2022-10-17T07:56:42;15.50;99.90
2022;DHT22;1015;49.756;6.994;2022-10-17T07:59:15;15.60;99.90
2022;DHT22;1015;49.756;6.994;2022-10-17T08:01:42;15.70;99.90
2022;DHT22;1015;49.756;6.994;2022-10-17T08:04:09;15.80;99.90
2022;DHT22;1015;49.756;6.994;2022-10-17T08:06:36;15.90;99.90
2022;DHT22;1015;49.756;6.994;2022-10-17T08:09:03;16.10;99.90
2022;DHT22;1015;49.756;6.994;2022-10-17T08:11:31;16.10;99.90
2022;DHT22;1015;49.756;6.994;2022-10-17T08:13:59;16.00;99.90
2022;DHT22;1015;49.756;6.994;2022-10-17T08:16:27;16.10;99.90
2022;DHT22;1015;49.756;6.994;2022-10-17T08:18:54;16.20;99.90
2022;DHT22;1015;49.756;6.994;2022-10-17T08:21:21;16.10;99.90
2022;DHT22;1015;49.756;6.994;2022-10-17T08:23:49;16.20;99.90
2022;DHT22;1015;49.756;6.994;2022-10-17T08:26:16;16.30;99.90
2022;DHT22;1015;49.756;6.994;2022-10-17T08:28:45;16.30;99.90
2022;DHT22;1015;49.756;6.994;2022-10-17T08:31:15;16.30;99.90
2022;DHT22;1015;49.756;6.994;2022-10-17T08:33:44;16.30;99.90
2022;DHT22;1015;49.756;6.994;2022-10-17T08:36:13;16.30;99.90
2022;DHT22;1015;49.756;6.994;2022-10-17T08:38:41;16.40;99.90
2022;DHT22;1015;49.756;6.994;2022-10-17T08:41:40;16.40;99.90
2022;DHT22;1015;49.756;6.994;2022-10-17T08:44:16;16.60;99.90
2022;DHT22;1015;49.756;6.994;2022-10-17T08:46:49;16.50;99.90
2022;DHT22;1015;49.756;6.994;2022-10-17T08:49:25;16.60;99.90
2022;DHT22;1015;49.756;6.994;2022-10-17T08:52:00;16.70;99.90
2022;DHT22;1015;49.756;6.994;2022-10-17T08:54:47;16.70;99.90
2022;DHT22;1015;49.756;6.994;2022-10-17T08:57:16;16.70;99.90
2022;DHT22;1015;49.756;6.994;2022-10-17T08:59:44;16.80;99.90
2022;DHT22;1015;49.756;6.994;2022-10-17T09:02:32;16.80;99.90
2022;DHT22;1015;49.756;6.994;2022-10-17T09:05:24;16.70;99.90
2022;DHT22;1015;49.756;6.994;2022-10-17T09:08:01;16.80;99.90
2022;DHT22;1015;49.756;6.994;2022-10-17T09:10:38;16.90;99.90
2022;DHT22;1015;49.756;6.994;2022-10-17T09:13:21;17.00;99.90
2022;DHT22;1015;49.756;6.994;2022-10-17T09:15:59;17.00;99.90
2022;DHT22;1015;49.756;6.994;2022-10-17T09:18:32;16.90;99.90
2022;DHT22;1015;49.756;6.994;2022-10-17T09:21:05;17.00;99.90
2022;DHT22;1015;49.756;6.994;2022-10-17T09:23:45;17.10;99.90
2022;DHT22;1015;49.756;6.994;2022-10-17T09:26:14;17.20;99.90
2022;DHT22;1015;49.756;6.994;2022-10-17T09:28:43;17.30;99.90
2022;DHT22;1015;49.756;6.994;2022-10-17T09:31:17;17.50;99.90
2022;DHT22;1015;49.756;6.994;2022-10-17T09:33:48;17.50;99.90
2022;DHT22;1015;49.756;6.994;2022-10-17T09:36:18;17.60;99.90
2022;DHT22;1015;49.756;6.994;2022-10-17T09:38:49;17.60;99.90
2022;DHT22;1015;49.756;6.994;2022-10-17T09:41:23;17.60;99.90
2022;DHT22;1015;49.756;6.994;2022-10-17T09:43:55;17.70;99.90
2022;DHT22;1015;49.756;6.994;2022-10-17T09:46:26;17.90;99.90
2022;DHT22;1015;49.756;6.994;2022-10-17T09:49:00;18.00;99.90
2022;DHT22;1015;49.756;6.994;2022-10-17T09:51:36;17.80;99.90
2022;DHT22;1015;49.756;6.994;2022-10-17T09:54:10;17.80;99.90
2022;DHT22;1015;49.756;6.994;2022-10-17T09:56:55;18.10;99.90
2022;DHT22;1015;49.756;6.994;2022-10-17T09:59:32;18.20;99.90
2022;DHT22;1015;49.756;6.994;2022-10-17T10:02:15;18.20;99.90
2022;DHT22;1015;49.756;6.994;2022-10-17T10:05:00;18.30;99.90
2022;DHT22;1015;49.756;6.994;2022-10-17T10:07:29;18.30;99.90
2022;DHT22;1015;49.756;6.994;2022-10-17T10:09:58;18.40;99.90
2022;DHT22;1015;49.756;6.994;2022-10-17T10:12:30;18.40;99.90
2022;DHT22;1015;49.756;6.994;2022-10-17T10:14:58;18.60;99.90
2022;DHT22;1015;49.756;6.994;2022-10-17T10:17:35;18.60;99.90
2022;DHT22;1015;49.756;6.994;2022-10-17T10:20:27;18.70;99.90
2022;DHT22;1015;49.756;6.994;2022-10-17T10:23:13;18.70;99.90
2022;DHT22;1015;49.756;6.994;2022-10-17T10:25:53;18.50;99.90
2022;DHT22;1015;49.756;6.994;2022-10-17T10:28:26;18.50;99.90
2022;DHT22;1015;49.756;6.994;2022-10-17T10:30:56;18.30;99.90
2022;DHT22;1015;49.756;6.994;2022-10-17T10:33:26;18.60;99.90
2022;DHT22;1015;49.756;6.994;2022-10-17T10:35:59;18.90;99.90
2022;DHT22;1015;49.756;6.994;2022-10-17T10:38:29;19.20;99.90
2022;DHT22;1015;49.756;6.994;2022-10-17T10:41:04;19.60;99.90
2022;DHT22;1015;49.756;6.994;2022-10-17T10:43:35;19.80;99.90
2022;DHT22;1015;49.756;6.994;2022-10-17T10:46:05;20.60;99.90
2022;DHT22;1015;49.756;6.994;2022-10-17T10:48:34;20.60;99.90
2022;DHT22;1015;49.756;6.994;2022-10-17T10:51:06;20.40;99.90
2022;DHT22;1015;49.756;6.994;2022-10-17T10:53:43;20.00;99.90
2022;DHT22;1015;49.756;6.994;2022-10-17T10:56:17;20.40;99.90
2022;DHT22;1015;49.756;6.994;2022-10-17T10:58:51;20.30;99.90
2022;DHT22;1015;49.756;6.994;2022-10-17T11:01:27;20.10;99.90
2022;DHT22;1015;49.756;6.994;2022-10-17T11:04:06;20.20;99.90
2022;DHT22;1015;49.756;6.994;2022-10-17T11:06:37;20.20;99.90
2022;DHT22;1015;49.756;6.994;2022-10-17T11:09:13;20.20;99.90
2022;DHT22;1015;49.756;6.994;2022-10-17T11:11:46;20.20;99.90
2022;DHT22;1015;49.756;6.994;2022-10-17T11:14:17;20.20;99.90
2022;DHT22;1015;49.756;6.994;2022-10-17T11:16:48;20.10;99.90
2022;DHT22;1015;49.756;6.994;2022-10-17T11:19:23;20.00;99.90
2022;DHT22;1015;49.756;6.994;2022-10-17T11:22:03;19.90;99.90
2022;DHT22;1015;49.756;6.994;2022-10-17T11:24:36;20.10;99.90
2022;DHT22;1015;49.756;6.994;2022-10-17T11:27:05;20.20;99.90
2022;DHT22;1015;49.756;6.994;2022-10-17T11:29:34;20.40;99.90
2022;DHT22;1015;49.756;6.994;2022-10-17T11:32:08;20.60;99.90
2022;DHT22;1015;49.756;6.994;2022-10-17T11:34:40;20.70;99.90
2022;DHT22;1015;49.756;6.994;2022-10-17T11:37:14;20.80;99.90
2022;DHT22;1015;49.756;6.994;2022-10-17T11:39:46;20.80;99.90
2022;DHT22;1015;49.756;6.994;2022-10-17T11:42:19;20.60;99.90
2022;DHT22;1015;49.756;6.994;2022-10-17T11:44:53;20.50;99.90
2022;DHT22;1015;49.756;6.994;2022-10-17T11:47:30;20.30;99.90
2022;DHT22;1015;49.756;6.994;2022-10-17T11:50:04;20.30;99.90
2022;DHT22;1015;49.756;6.994;2022-10-17T11:52:39;20.40;99.90
2022;DHT22;1015;49.756;6.994;2022-10-17T11:55:11;20.30;99.90
2022;DHT22;1015;49.756;6.994;2022-10-17T11:57:49;20.70;99.90
2022;DHT22;1015;49.756;6.994;2022-10-17T12:00:24;20.90;99.90
2022;DHT22;1015;49.756;6.994;2022-10-17T12:03:00;20.80;99.90
2022;DHT22;1015;49.756;6.994;2022-10-17T12:05:36;20.90;99.90
2022;DHT22;1015;49.756;6.994;2022-10-17T12:08:12;20.70;99.90
2022;DHT22;1015;49.756;6.994;2022-10-17T12:10:46;20.80;99.90
2022;DHT22;1015;49.756;6.994;2022-10-17T12:13:45;20.90;99.90
2022;DHT22;1015;49.756;6.994;2022-10-17T12:16:37;21.00;99.90
2022;DHT22;1015;49.756;6.994;2022-10-17T12:19:33;20.80;99.90
2022;DHT22;1015;49.756;6.994;2022-10-17T12:22:04;21.00;99.90
2022;DHT22;1015;49.756;6.994;2022-10-17T12:24:41;20.90;99.90
2022;DHT22;1015;49.756;6.994;2022-10-17T12:27:27;20.90;99.90
2022;DHT22;1015;49.756;6.994;2022-10-17T12:29:58;20.80;99.90
2022;DHT22;1015;49.756;6.994;2022-10-17T12:32:26;20.80;99.90
2022;DHT22;1015;49.756;6.994;2022-10-17T12:34:55;20.60;99.90
2022;DHT22;1015;49.756;6.994;2022-10-17T12:40:58;20.50;99.90
2022;DHT22;1015;49.756;6.994;2022-10-17T12:43:46;20.50;99.90
2022;DHT22;1015;49.756;6.994;2022-10-17T12:49:39;20.10;99.90
2022;DHT22;1015;49.756;6.994;2022-10-17T12:55:22;20.40;99.90
2022;DHT22;1015;49.756;6.994;2022-10-17T12:57:54;20.50;99.90
2022;DHT22;1015;49.756;6.994;2022-10-17T13:00:28;20.50;99.90
2022;DHT22;1015;49.756;6.994;2022-10-17T13:03:03;20.50;99.90
2022;DHT22;1015;49.756;6.994;2022-10-17T13:05:34;20.40;99.90
2022;DHT22;1015;49.756;6.994;2022-10-17T13:08:03;20.40;99.90
2022;DHT22;1015;49.756;6.994;2022-10-17T13:10:33;20.30;99.90
2022;DHT22;1015;49.756;6.994;2022-10-17T13:13:09;20.10;99.90
2022;DHT22;1015;49.756;6.994;2022-10-17T13:15:37;19.90;99.90
2022;DHT22;1015;49.756;6.994;2022-10-17T13:18:05;20.00;99.90
2022;DHT22;1015;49.756;6.994;2022-10-17T13:20:32;20.00;99.90
2022;DHT22;1015;49.756;6.994;2022-10-17T13:22:59;19.90;99.90
2022;DHT22;1015;49.756;6.994;2022-10-17T13:25:27;20.10;99.90
2022;DHT22;1015;49.756;6.994;2022-10-17T13:28:10;19.90;99.90
2022;DHT22;1015;49.756;6.994;2022-10-17T13:30:38;20.20;99.90
2022;DHT22;1015;49.756;6.994;2022-10-17T13:33:27;19.90;99.90
2022;DHT22;1015;49.756;6.994;2022-10-17T13:35:55;19.90;99.90
2022;DHT22;1015;49.756;6.994;2022-10-17T13:38:25;19.90;99.90
2022;DHT22;1015;49.756;6.994;2022-10-17T13:40:53;20.30;99.90
2022;DHT22;1015;49.756;6.994;2022-10-17T13:43:22;20.10;99.90
2022;DHT22;1015;49.756;6.994;2022-10-17T13:45:52;20.10;99.90
2022;DHT22;1015;49.756;6.994;2022-10-17T13:48:22;20.30;99.90
2022;DHT22;1015;49.756;6.994;2022-10-17T13:50:51;20.40;99.90
2022;DHT22;1015;49.756;6.994;2022-10-17T13:53:24;20.50;99.90
2022;DHT22;1015;49.756;6.994;2022-10-17T13:55:57;20.70;99.90
2022;DHT22;1015;49.756;6.994;2022-10-17T13:58:30;21.00;99.90
2022;DHT22;1015;49.756;6.994;2022-10-17T14:01:00;20.80;99.90
2022;DHT22;1015;49.756;6.994;2022-10-17T14:03:27;20.30;99.90
2022;DHT22;1015;49.756;6.994;2022-10-17T14:06:10;20.00;99.90
2022;DHT22;1015;49.756;6.994;2022-10-17T14:08:44;19.80;99.90
2022;DHT22;1015;49.756;6.994;2022-10-17T14:11:21;19.80;99.90
2022;DHT22;1015;49.756;6.994;2022-10-17T14:13:52;19.70;99.90
2022;DHT22;1015;49.756;6.994;2022-10-17T14:16:20;19.70;99.90
2022;DHT22;1015;49.756;6.994;2022-10-17T14:18:49;19.60;99.90
2022;DHT22;1015;49.756;6.994;2022-10-17T14:21:21;19.50;99.90
2022;DHT22;1015;49.756;6.994;2022-10-17T14:23:50;19.60;99.90
2022;DHT22;1015;49.756;6.994;2022-10-17T14:26:20;19.80;99.90
2022;DHT22;1015;49.756;6.994;2022-10-17T14:28:49;19.80;99.90
2022;DHT22;1015;49.756;6.994;2022-10-17T14:31:29;19.80;99.90
2022;DHT22;1015;49.756;6.994;2022-10-17T14:33:57;19.70;99.90
2022;DHT22;1015;49.756;6.994;2022-10-17T14:36:39;19.60;99.90
2022;DHT22;1015;49.756;6.994;2022-10-17T14:39:17;19.50;99.90
2022;DHT22;1015;49.756;6.994;2022-10-17T14:41:45;19.50;99.90
2022;DHT22;1015;49.756;6.994;2022-10-17T14:44:18;19.60;99.90
2022;DHT22;1015;49.756;6.994;2022-10-17T14:46:51;19.60;99.90
2022;DHT22;1015;49.756;6.994;2022-10-17T14:49:24;19.70;99.90
2022;DHT22;1015;49.756;6.994;2022-10-17T14:52:25;19.80;99.90
2022;DHT22;1015;49.756;6.994;2022-10-17T14:54:53;20.00;99.90
2022;DHT22;1015;49.756;6.994;2022-10-17T14:57:24;20.30;99.90
2022;DHT22;1015;49.756;6.994;2022-10-17T14:59:52;20.50;99.90
2022;DHT22;1015;49.756;6.994;2022-10-17T15:02:21;20.70;99.90
2022;DHT22;1015;49.756;6.994;2022-10-17T15:04:48;20.80;99.90
2022;DHT22;1015;49.756;6.994;2022-10-17T15:07:16;20.80;99.90
2022;DHT22;1015;49.756;6.994;2022-10-17T15:09:47;20.60;99.90
2022;DHT22;1015;49.756;6.994;2022-10-17T15:12:17;20.40;99.90
2022;DHT22;1015;49.756;6.994;2022-10-17T15:14:45;19.90;99.90
2022;DHT22;1015;49.756;6.994;2022-10-17T15:17:14;19.60;99.90
2022;DHT22;1015;49.756;6.994;2022-10-17T15:19:44;19.50;99.90
2022;DHT22;1015;49.756;6.994;2022-10-17T15:22:11;19.50;99.90
2022;DHT22;1015;49.756;6.994;2022-10-17T15:24:39;19.40;99.90
2022;DHT22;1015;49.756;6.994;2022-10-17T15:27:13;19.30;99.90
2022;DHT22;1015;49.756;6.994;2022-10-17T15:29:40;19.20;99.90
2022;DHT22;1015;49.756;6.994;2022-10-17T15:32:11;19.10;99.90
2022;DHT22;1015;49.756;6.994;2022-10-17T15:34:40;19.10;99.90
2022;DHT22;1015;49.756;6.994;2022-10-17T15:37:16;19.00;99.90
2022;DHT22;1015;49.756;6.994;2022-10-17T15:39:48;19.00;99.90
2022;DHT22;1015;49.756;6.994;2022-10-17T15:42:20;18.80;99.90
2022;DHT22;1015;49.756;6.994;2022-10-17T15:44:47;18.70;99.90
2022;DHT22;1015;49.756;6.994;2022-10-17T15:47:23;18.50;99.90
2022;DHT22;1015;49.756;6.994;2022-10-17T15:49:50;18.50;99.90
2022;DHT22;1015;49.756;6.994;2022-10-17T15:52:19;18.40;99.90
2022;DHT22;1015;49.756;6.994;2022-10-17T15:54:46;18.30;99.90
2022;DHT22;1015;49.756;6.994;2022-10-17T15:57:17;18.30;99.90
2022;DHT22;1015;49.756;6.994;2022-10-17T15:59:45;18.30;99.90
2022;DHT22;1015;49.756;6.994;2022-10-17T16:02:14;18.30;99.90
2022;DHT22;1015;49.756;6.994;2022-10-17T16:04:41;18.20;99.90
2022;DHT22;1015;49.756;6.994;2022-10-17T16:07:09;18.10;99.90
2022;DHT22;1015;49.756;6.994;2022-10-17T16:09:38;18.10;99.90
2022;DHT22;1015;49.756;6.994;2022-10-17T16:12:09;18.00;99.90
2022;DHT22;1015;49.756;6.994;2022-10-17T16:14:37;18.00;99.90
2022;DHT22;1015;49.756;6.994;2022-10-17T16:17:04;17.80;99.90
2022;DHT22;1015;49.756;6.994;2022-10-17T16:19:32;17.60;99.90
2022;DHT22;1015;49.756;6.994;2022-10-17T16:22:00;17.50;99.90
2022;DHT22;1015;49.756;6.994;2022-10-17T16:24:29;17.20;99.90
2022;DHT22;1015;49.756;6.994;2022-10-17T16:26:57;17.00;99.90
2022;DHT22;1015;49.756;6.994;2022-10-17T16:29:24;16.80;99.90
2022;DHT22;1015;49.756;6.994;2022-10-17T16:31:52;16.80;99.90
2022;DHT22;1015;49.756;6.994;2022-10-17T16:34:19;16.90;99.90
2022;DHT22;1015;49.756;6.994;2022-10-17T16:36:46;17.00;99.90
2022;DHT22;1015;49.756;6.994;2022-10-17T16:39:13;16.90;99.90